首页
METAR-TAF:

METAR-TAF

机场 :

新西伯利亚, 俄罗斯

托尔马切沃机场

纬度: 55-01N, 经度: 082-38E, 海拔: 111米

当前天气观测

该预报发布于22分钟前的22:00 UTC
风速8节,风向西
温度 3°C
湿度 93%
气压 1014 hPa
能見度: 8000
多云层高于1000英尺
阴天层高于4200英尺, 积雨云.
小阵雨

METAR: UNNT 252200Z 27004MPS 8000 -SHRA BKN010 OVC042CB 03/02 Q1014 R25/290160 R16/290160 NOSIG RMK QFE751/1001

时间: 05:22 (22:22 UTC)

预报

该预报发布于2小时和22分钟前的20:00 UTC
预报有效从25日的 21点(UTC)到 26日的 21点(UTC)
风速17节,风向西,有时为31节阵风
能见度10公里或以上
多云层高于2000英尺, 积雨云.
短暂存在
从 25日的 21点(UTC)到 26日的 04点(UTC)
风速10节,风向西南,有时为19节阵风
多云层高于1100英尺, 积雨云.
小阵雨
成为
从 26日的 04点(UTC)到 26日的 05点(UTC)
风速17节,风向西南,有时为31节阵风
成为
从 26日的 12点(UTC)到 26日的 14点(UTC)
风速6节,风向西,有时为16节阵风

TAF: UNNT 252000Z 2521/2621 28009G16MPS 9999 BKN020CB TEMPO 2521/2604 23005G10MPS -SHRA BKN011CB BECMG 2604/2605 23009G16MPS BECMG 2612/2614 27003G08MPS

超过4000个机场的气象观测和天气预报(METAR&TAF报告)。

可查询的气象台以黄色和红色小点在地图上表示。

将鼠标移到小点上方,可查看气象台名称。

然后点击查看天气观测和预报。

如需切换地图:点击带黑十字的绿色按钮放大地图;点击带横线的绿色按钮缩小地图;或者点击绿色箭头查看邻近地区的地图。


METAR-TAF: